sensor_id;sensor_type;location;lat;lon;timestamp;P1;durP1;ratioP1;P2;durP2;ratioP2
26686;SDS011;14298;50.900;4.648;2023-09-12T00:00:50;14.67;;;6.70;;
26686;SDS011;14298;50.900;4.648;2023-09-12T00:03:19;10.57;;;6.63;;
26686;SDS011;14298;50.900;4.648;2023-09-12T00:05:51;15.70;;;6.47;;
26686;SDS011;14298;50.900;4.648;2023-09-12T00:08:19;8.33;;;6.63;;
26686;SDS011;14298;50.900;4.648;2023-09-12T00:10:58;10.50;;;7.57;;
26686;SDS011;14298;50.900;4.648;2023-09-12T00:13:17;18.27;;;8.13;;
26686;SDS011;14298;50.900;4.648;2023-09-12T00:15:45;32.67;;;10.13;;
26686;SDS011;14298;50.900;4.648;2023-09-12T00:18:13;7.57;;;6.73;;
26686;SDS011;14298;50.900;4.648;2023-09-12T00:20:41;7.80;;;6.83;;
26686;SDS011;14298;50.900;4.648;2023-09-12T00:23:09;12.53;;;7.30;;
26686;SDS011;14298;50.900;4.648;2023-09-12T00:25:37;12.53;;;7.80;;
26686;SDS011;14298;50.900;4.648;2023-09-12T00:28:05;23.47;;;6.83;;
26686;SDS011;14298;50.900;4.648;2023-09-12T00:30:33;14.20;;;7.33;;
26686;SDS011;14298;50.900;4.648;2023-09-12T00:35:48;24.27;;;10.47;;
26686;SDS011;14298;50.900;4.648;2023-09-12T00:38:16;10.07;;;9.10;;
26686;SDS011;14298;50.900;4.648;2023-09-12T00:40:44;24.50;;;10.10;;
26686;SDS011;14298;50.900;4.648;2023-09-12T00:43:12;14.90;;;9.87;;
26686;SDS011;14298;50.900;4.648;2023-09-12T00:45:41;10.37;;;8.10;;
26686;SDS011;14298;50.900;4.648;2023-09-12T00:48:09;7.20;;;6.67;;
26686;SDS011;14298;50.900;4.648;2023-09-12T00:50:37;25.47;;;10.50;;
26686;SDS011;14298;50.900;4.648;2023-09-12T00:53:06;16.93;;;10.10;;
26686;SDS011;14298;50.900;4.648;2023-09-12T00:55:34;47.90;;;10.10;;
26686;SDS011;14298;50.900;4.648;2023-09-12T00:58:04;11.00;;;8.67;;
26686;SDS011;14298;50.900;4.648;2023-09-12T01:00:34;22.70;;;8.27;;
26686;SDS011;14298;50.900;4.648;2023-09-12T01:03:02;11.83;;;8.77;;
26686;SDS011;14298;50.900;4.648;2023-09-12T01:05:31;27.90;;;10.27;;
26686;SDS011;14298;50.900;4.648;2023-09-12T01:07:59;30.73;;;9.57;;
26686;SDS011;14298;50.900;4.648;2023-09-12T01:10:27;19.60;;;8.37;;
26686;SDS011;14298;50.900;4.648;2023-09-12T01:12:55;20.27;;;7.90;;
26686;SDS011;14298;50.900;4.648;2023-09-12T01:15:23;20.37;;;8.27;;
26686;SDS011;14298;50.900;4.648;2023-09-12T01:17:51;10.43;;;7.00;;
26686;SDS011;14298;50.900;4.648;2023-09-12T01:20:23;9.17;;;8.23;;
26686;SDS011;14298;50.900;4.648;2023-09-12T01:27:48;13.37;;;7.40;;
26686;SDS011;14298;50.900;4.648;2023-09-12T01:30:18;9.40;;;7.20;;
26686;SDS011;14298;50.900;4.648;2023-09-12T01:32:47;17.00;;;7.60;;
26686;SDS011;14298;50.900;4.648;2023-09-12T01:35:16;17.40;;;7.13;;
26686;SDS011;14298;50.900;4.648;2023-09-12T01:37:44;16.17;;;10.57;;
26686;SDS011;14298;50.900;4.648;2023-09-12T01:40:12;24.50;;;8.13;;
26686;SDS011;14298;50.900;4.648;2023-09-12T01:42:42;39.10;;;13.00;;
26686;SDS011;14298;50.900;4.648;2023-09-12T01:45:13;58.73;;;13.63;;
26686;SDS011;14298;50.900;4.648;2023-09-12T01:47:41;39.83;;;11.50;;
26686;SDS011;14298;50.900;4.648;2023-09-12T01:50:09;14.90;;;8.87;;
26686;SDS011;14298;50.900;4.648;2023-09-12T01:52:40;17.37;;;9.17;;
26686;SDS011;14298;50.900;4.648;2023-09-12T01:55:08;18.47;;;7.20;;
26686;SDS011;14298;50.900;4.648;2023-09-12T01:57:38;9.77;;;7.63;;
26686;SDS011;14298;50.900;4.648;2023-09-12T02:00:06;27.43;;;9.73;;
26686;SDS011;14298;50.900;4.648;2023-09-12T02:02:35;10.90;;;7.07;;
26686;SDS011;14298;50.900;4.648;2023-09-12T02:05:16;14.87;;;7.27;;
26686;SDS011;14298;50.900;4.648;2023-09-12T02:07:45;26.33;;;11.73;;
26686;SDS011;14298;50.900;4.648;2023-09-12T02:10:14;12.67;;;8.30;;
26686;SDS011;14298;50.900;4.648;2023-09-12T02:12:42;15.50;;;8.40;;
26686;SDS011;14298;50.900;4.648;2023-09-12T02:15:10;16.23;;;7.20;;
26686;SDS011;14298;50.900;4.648;2023-09-12T02:17:39;13.07;;;7.10;;
26686;SDS011;14298;50.900;4.648;2023-09-12T02:20:08;8.93;;;7.07;;
26686;SDS011;14298;50.900;4.648;2023-09-12T02:22:36;18.77;;;7.20;;
26686;SDS011;14298;50.900;4.648;2023-09-12T02:25:05;39.50;;;8.77;;
26686;SDS011;14298;50.900;4.648;2023-09-12T02:27:34;19.07;;;8.30;;
26686;SDS011;14298;50.900;4.648;2023-09-12T02:30:02;18.77;;;5.93;;
26686;SDS011;14298;50.900;4.648;2023-09-12T02:32:30;11.77;;;8.50;;
26686;SDS011;14298;50.900;4.648;2023-09-12T02:34:58;11.10;;;7.67;;
26686;SDS011;14298;50.900;4.648;2023-09-12T02:37:26;11.67;;;9.87;;
26686;SDS011;14298;50.900;4.648;2023-09-12T02:39:54;14.33;;;8.10;;
26686;SDS011;14298;50.900;4.648;2023-09-12T02:42:22;10.33;;;9.37;;
26686;SDS011;14298;50.900;4.648;2023-09-12T02:44:51;24.00;;;9.77;;
26686;SDS011;14298;50.900;4.648;2023-09-12T02:47:19;13.77;;;8.07;;
26686;SDS011;14298;50.900;4.648;2023-09-12T02:49:47;14.60;;;8.30;;
26686;SDS011;14298;50.900;4.648;2023-09-12T02:52:15;15.47;;;8.67;;
26686;SDS011;14298;50.900;4.648;2023-09-12T02:54:43;25.67;;;8.00;;
26686;SDS011;14298;50.900;4.648;2023-09-12T02:57:11;16.67;;;8.60;;
26686;SDS011;14298;50.900;4.648;2023-09-12T02:59:40;18.07;;;7.77;;
26686;SDS011;14298;50.900;4.648;2023-09-12T03:02:08;15.43;;;8.80;;
26686;SDS011;14298;50.900;4.648;2023-09-12T03:04:36;24.50;;;7.80;;
26686;SDS011;14298;50.900;4.648;2023-09-12T03:07:04;27.57;;;7.77;;
26686;SDS011;14298;50.900;4.648;2023-09-12T03:09:32;10.63;;;8.63;;
26686;SDS011;14298;50.900;4.648;2023-09-12T03:12:05;19.30;;;10.20;;
26686;SDS011;14298;50.900;4.648;2023-09-12T03:14:29;29.57;;;10.83;;
26686;SDS011;14298;50.900;4.648;2023-09-12T03:16:57;25.20;;;8.90;;
26686;SDS011;14298;50.900;4.648;2023-09-12T03:19:25;12.00;;;8.03;;
26686;SDS011;14298;50.900;4.648;2023-09-12T03:21:53;21.23;;;8.60;;
26686;SDS011;14298;50.900;4.648;2023-09-12T03:24:21;12.77;;;8.27;;
26686;SDS011;14298;50.900;4.648;2023-09-12T03:26:51;11.17;;;7.67;;
26686;SDS011;14298;50.900;4.648;2023-09-12T03:29:20;21.07;;;8.13;;
26686;SDS011;14298;50.900;4.648;2023-09-12T03:31:48;30.13;;;7.80;;
26686;SDS011;14298;50.900;4.648;2023-09-12T03:34:16;29.30;;;8.53;;
26686;SDS011;14298;50.900;4.648;2023-09-12T03:36:44;19.30;;;8.63;;
26686;SDS011;14298;50.900;4.648;2023-09-12T03:39:12;12.30;;;9.07;;
26686;SDS011;14298;50.900;4.648;2023-09-12T03:41:40;39.77;;;11.13;;
26686;SDS011;14298;50.900;4.648;2023-09-12T03:44:08;28.37;;;10.43;;
26686;SDS011;14298;50.900;4.648;2023-09-12T03:46:36;26.87;;;10.83;;
26686;SDS011;14298;50.900;4.648;2023-09-12T03:49:04;18.70;;;10.80;;
26686;SDS011;14298;50.900;4.648;2023-09-12T03:51:33;9.23;;;8.17;;
26686;SDS011;14298;50.900;4.648;2023-09-12T03:54:02;21.87;;;10.63;;
26686;SDS011;14298;50.900;4.648;2023-09-12T03:56:30;28.67;;;10.07;;
26686;SDS011;14298;50.900;4.648;2023-09-12T03:58:58;24.47;;;11.43;;
26686;SDS011;14298;50.900;4.648;2023-09-12T04:01:28;32.10;;;9.53;;
26686;SDS011;14298;50.900;4.648;2023-09-12T04:03:56;15.70;;;9.77;;
26686;SDS011;14298;50.900;4.648;2023-09-12T04:06:24;26.13;;;12.73;;
26686;SDS011;14298;50.900;4.648;2023-09-12T04:08:52;35.73;;;13.07;;
26686;SDS011;14298;50.900;4.648;2023-09-12T04:11:20;20.03;;;12.07;;
26686;SDS011;14298;50.900;4.648;2023-09-12T04:13:48;30.30;;;16.00;;
26686;SDS011;14298;50.900;4.648;2023-09-12T04:16:16;26.03;;;13.27;;
26686;SDS011;14298;50.900;4.648;2023-09-12T04:18:44;47.87;;;11.50;;
26686;SDS011;14298;50.900;4.648;2023-09-12T04:21:12;25.40;;;10.73;;
26686;SDS011;14298;50.900;4.648;2023-09-12T04:23:40;29.83;;;11.43;;
26686;SDS011;14298;50.900;4.648;2023-09-12T04:26:08;23.27;;;10.77;;
26686;SDS011;14298;50.900;4.648;2023-09-12T04:28:36;31.97;;;11.37;;
26686;SDS011;14298;50.900;4.648;2023-09-12T04:31:04;16.03;;;11.93;;
26686;SDS011;14298;50.900;4.648;2023-09-12T04:33:32;38.47;;;12.30;;
26686;SDS011;14298;50.900;4.648;2023-09-12T04:36:00;54.00;;;16.50;;
26686;SDS011;14298;50.900;4.648;2023-09-12T04:38:29;18.80;;;11.53;;
26686;SDS011;14298;50.900;4.648;2023-09-12T04:40:59;37.00;;;13.07;;
26686;SDS011;14298;50.900;4.648;2023-09-12T04:43:28;30.23;;;15.90;;
26686;SDS011;14298;50.900;4.648;2023-09-12T04:45:56;60.00;;;16.20;;
26686;SDS011;14298;50.900;4.648;2023-09-12T04:48:25;42.60;;;13.53;;
26686;SDS011;14298;50.900;4.648;2023-09-12T04:50:53;34.23;;;13.20;;
26686;SDS011;14298;50.900;4.648;2023-09-12T04:53:21;19.63;;;13.30;;
26686;SDS011;14298;50.900;4.648;2023-09-12T04:55:51;23.57;;;14.00;;
26686;SDS011;14298;50.900;4.648;2023-09-12T04:58:18;29.30;;;13.33;;
26686;SDS011;14298;50.900;4.648;2023-09-12T05:00:46;22.93;;;14.27;;
26686;SDS011;14298;50.900;4.648;2023-09-12T05:03:15;25.17;;;11.87;;
26686;SDS011;14298;50.900;4.648;2023-09-12T05:05:46;26.57;;;12.40;;
26686;SDS011;14298;50.900;4.648;2023-09-12T05:08:15;46.33;;;13.73;;
26686;SDS011;14298;50.900;4.648;2023-09-12T05:10:46;45.57;;;15.20;;
26686;SDS011;14298;50.900;4.648;2023-09-12T05:13:14;45.97;;;14.43;;
26686;SDS011;14298;50.900;4.648;2023-09-12T05:15:42;36.53;;;13.67;;
26686;SDS011;14298;50.900;4.648;2023-09-12T05:18:10;18.77;;;11.30;;
26686;SDS011;14298;50.900;4.648;2023-09-12T05:20:38;40.10;;;13.37;;
26686;SDS011;14298;50.900;4.648;2023-09-12T05:23:06;68.40;;;16.20;;
26686;SDS011;14298;50.900;4.648;2023-09-12T05:25:34;63.80;;;14.37;;
26686;SDS011;14298;50.900;4.648;2023-09-12T05:28:02;36.00;;;16.03;;
26686;SDS011;14298;50.900;4.648;2023-09-12T05:30:31;20.90;;;10.37;;
26686;SDS011;14298;50.900;4.648;2023-09-12T05:32:59;32.77;;;14.23;;
26686;SDS011;14298;50.900;4.648;2023-09-12T05:35:27;34.70;;;12.23;;
26686;SDS011;14298;50.900;4.648;2023-09-12T05:37:55;72.43;;;16.63;;
26686;SDS011;14298;50.900;4.648;2023-09-12T05:40:23;32.03;;;13.03;;
26686;SDS011;14298;50.900;4.648;2023-09-12T05:42:51;43.43;;;13.03;;
26686;SDS011;14298;50.900;4.648;2023-09-12T05:45:20;15.23;;;9.40;;
26686;SDS011;14298;50.900;4.648;2023-09-12T05:47:48;44.80;;;11.80;;
26686;SDS011;14298;50.900;4.648;2023-09-12T05:50:17;24.47;;;10.57;;
26686;SDS011;14298;50.900;4.648;2023-09-12T05:52:45;15.07;;;8.93;;
26686;SDS011;14298;50.900;4.648;2023-09-12T05:55:13;20.87;;;11.80;;
26686;SDS011;14298;50.900;4.648;2023-09-12T05:57:41;29.83;;;12.73;;
26686;SDS011;14298;50.900;4.648;2023-09-12T06:00:09;18.97;;;12.83;;
26686;SDS011;14298;50.900;4.648;2023-09-12T06:02:39;59.13;;;17.77;;
26686;SDS011;14298;50.900;4.648;2023-09-12T06:05:07;77.07;;;17.93;;
26686;SDS011;14298;50.900;4.648;2023-09-12T06:07:35;37.77;;;15.20;;
26686;SDS011;14298;50.900;4.648;2023-09-12T06:10:05;17.97;;;12.47;;
26686;SDS011;14298;50.900;4.648;2023-09-12T06:12:34;21.63;;;11.70;;
26686;SDS011;14298;50.900;4.648;2023-09-12T06:15:03;25.23;;;13.30;;
26686;SDS011;14298;50.900;4.648;2023-09-12T06:17:31;56.97;;;15.53;;
26686;SDS011;14298;50.900;4.648;2023-09-12T06:19:59;28.07;;;13.30;;
26686;SDS011;14298;50.900;4.648;2023-09-12T06:22:27;38.30;;;15.20;;
26686;SDS011;14298;50.900;4.648;2023-09-12T06:24:55;26.87;;;14.47;;
26686;SDS011;14298;50.900;4.648;2023-09-12T06:27:23;22.80;;;16.27;;
26686;SDS011;14298;50.900;4.648;2023-09-12T06:29:51;39.63;;;16.50;;
26686;SDS011;14298;50.900;4.648;2023-09-12T06:32:19;27.00;;;14.03;;
26686;SDS011;14298;50.900;4.648;2023-09-12T06:34:47;23.00;;;14.77;;
26686;SDS011;14298;50.900;4.648;2023-09-12T06:37:15;29.27;;;14.40;;
26686;SDS011;14298;50.900;4.648;2023-09-12T06:39:43;34.90;;;15.13;;
26686;SDS011;14298;50.900;4.648;2023-09-12T06:42:11;21.43;;;15.27;;
26686;SDS011;14298;50.900;4.648;2023-09-12T06:44:39;39.23;;;14.60;;
26686;SDS011;14298;50.900;4.648;2023-09-12T06:47:07;34.53;;;14.70;;
26686;SDS011;14298;50.900;4.648;2023-09-12T06:49:36;26.87;;;15.00;;
26686;SDS011;14298;50.900;4.648;2023-09-12T06:52:05;27.07;;;13.77;;
26686;SDS011;14298;50.900;4.648;2023-09-12T06:54:33;36.90;;;13.73;;
26686;SDS011;14298;50.900;4.648;2023-09-12T06:57:01;34.80;;;15.67;;
26686;SDS011;14298;50.900;4.648;2023-09-12T06:59:29;25.33;;;14.37;;
26686;SDS011;14298;50.900;4.648;2023-09-12T07:01:57;36.93;;;17.17;;
26686;SDS011;14298;50.900;4.648;2023-09-12T07:04:25;22.97;;;13.60;;
26686;SDS011;14298;50.900;4.648;2023-09-12T07:06:54;28.50;;;17.33;;
26686;SDS011;14298;50.900;4.648;2023-09-12T07:09:22;41.03;;;17.60;;
26686;SDS011;14298;50.900;4.648;2023-09-12T07:11:51;41.07;;;16.70;;
26686;SDS011;14298;50.900;4.648;2023-09-12T07:14:19;34.30;;;17.10;;
26686;SDS011;14298;50.900;4.648;2023-09-12T07:16:47;32.80;;;17.97;;
26686;SDS011;14298;50.900;4.648;2023-09-12T07:19:15;26.93;;;19.60;;
26686;SDS011;14298;50.900;4.648;2023-09-12T07:21:43;23.47;;;16.57;;
26686;SDS011;14298;50.900;4.648;2023-09-12T07:24:11;25.23;;;19.00;;
26686;SDS011;14298;50.900;4.648;2023-09-12T07:26:39;28.70;;;14.30;;
26686;SDS011;14298;50.900;4.648;2023-09-12T07:29:07;27.90;;;18.47;;
26686;SDS011;14298;50.900;4.648;2023-09-12T07:31:35;28.53;;;16.33;;
26686;SDS011;14298;50.900;4.648;2023-09-12T07:34:03;37.40;;;19.80;;
26686;SDS011;14298;50.900;4.648;2023-09-12T07:36:31;27.13;;;16.37;;
26686;SDS011;14298;50.900;4.648;2023-09-12T07:38:59;22.83;;;19.10;;
26686;SDS011;14298;50.900;4.648;2023-09-12T07:41:27;33.90;;;22.80;;
26686;SDS011;14298;50.900;4.648;2023-09-12T07:43:55;28.55;;;24.10;;
26686;SDS011;14298;50.900;4.648;2023-09-12T07:46:23;25.68;;;21.20;;
26686;SDS011;14298;50.900;4.648;2023-09-12T07:48:51;23.35;;;16.77;;
26686;SDS011;14298;50.900;4.648;2023-09-12T07:51:19;27.67;;;15.03;;
26686;SDS011;14298;50.900;4.648;2023-09-12T07:53:49;21.62;;;11.40;;
26686;SDS011;14298;50.900;4.648;2023-09-12T07:56:17;24.95;;;11.10;;
26686;SDS011;14298;50.900;4.648;2023-09-12T07:58:45;34.63;;;12.88;;
26686;SDS011;14298;50.900;4.648;2023-09-12T08:01:13;19.05;;;10.05;;
26686;SDS011;14298;50.900;4.648;2023-09-12T08:03:41;19.23;;;10.20;;
26686;SDS011;14298;50.900;4.648;2023-09-12T08:06:10;13.70;;;8.25;;
26686;SDS011;14298;50.900;4.648;2023-09-12T08:08:38;18.17;;;8.20;;
26686;SDS011;14298;50.900;4.648;2023-09-12T08:11:05;21.33;;;10.90;;
26686;SDS011;14298;50.900;4.648;2023-09-12T08:13:33;13.38;;;8.65;;
26686;SDS011;14298;50.900;4.648;2023-09-12T08:16:01;21.02;;;10.40;;
26686;SDS011;14298;50.900;4.648;2023-09-12T08:18:29;17.80;;;9.48;;
26686;SDS011;14298;50.900;4.648;2023-09-12T08:20:58;13.55;;;9.73;;
26686;SDS011;14298;50.900;4.648;2023-09-12T08:23:26;17.17;;;9.05;;
26686;SDS011;14298;50.900;4.648;2023-09-12T08:25:54;18.82;;;9.83;;
26686;SDS011;14298;50.900;4.648;2023-09-12T08:28:22;17.82;;;9.18;;
26686;SDS011;14298;50.900;4.648;2023-09-12T08:30:50;14.98;;;9.48;;
26686;SDS011;14298;50.900;4.648;2023-09-12T08:33:18;15.32;;;8.80;;
26686;SDS011;14298;50.900;4.648;2023-09-12T08:35:46;12.55;;;8.08;;
26686;SDS011;14298;50.900;4.648;2023-09-12T08:38:14;16.48;;;9.20;;
26686;SDS011;14298;50.900;4.648;2023-09-12T08:40:47;11.63;;;7.40;;
26686;SDS011;14298;50.900;4.648;2023-09-12T08:43:11;17.62;;;10.35;;
26686;SDS011;14298;50.900;4.648;2023-09-12T08:45:40;13.55;;;8.00;;
26686;SDS011;14298;50.900;4.648;2023-09-12T08:48:10;14.87;;;8.20;;
26686;SDS011;14298;50.900;4.648;2023-09-12T08:50:39;14.73;;;8.93;;
26686;SDS011;14298;50.900;4.648;2023-09-12T08:53:08;15.10;;;8.23;;
26686;SDS011;14298;50.900;4.648;2023-09-12T08:55:36;16.32;;;9.03;;
26686;SDS011;14298;50.900;4.648;2023-09-12T08:58:04;11.88;;;7.87;;
26686;SDS011;14298;50.900;4.648;2023-09-12T09:00:33;14.73;;;8.40;;
26686;SDS011;14298;50.900;4.648;2023-09-12T09:03:02;14.85;;;6.90;;
26686;SDS011;14298;50.900;4.648;2023-09-12T09:05:30;12.63;;;7.67;;
26686;SDS011;14298;50.900;4.648;2023-09-12T09:10:57;12.33;;;7.42;;
26686;SDS011;14298;50.900;4.648;2023-09-12T09:16:14;13.00;;;7.40;;
26686;SDS011;14298;50.900;4.648;2023-09-12T09:18:56;19.40;;;5.47;;
26686;SDS011;14298;50.900;4.648;2023-09-12T09:21:28;11.75;;;5.70;;
26686;SDS011;14298;50.900;4.648;2023-09-12T09:23:58;6.40;;;5.08;;
26686;SDS011;14298;50.900;4.648;2023-09-12T09:26:49;9.65;;;6.17;;
26686;SDS011;14298;50.900;4.648;2023-09-12T09:29:03;6.80;;;5.45;;
26686;SDS011;14298;50.900;4.648;2023-09-12T09:31:31;9.83;;;5.72;;
26686;SDS011;14298;50.900;4.648;2023-09-12T09:34:00;13.43;;;5.25;;
26686;SDS011;14298;50.900;4.648;2023-09-12T09:36:31;12.70;;;6.37;;
26686;SDS011;14298;50.900;4.648;2023-09-12T09:39:00;8.15;;;5.53;;
26686;SDS011;14298;50.900;4.648;2023-09-12T09:41:31;15.13;;;5.60;;
26686;SDS011;14298;50.900;4.648;2023-09-12T09:44:00;6.97;;;4.42;;
26686;SDS011;14298;50.900;4.648;2023-09-12T09:46:28;8.75;;;4.37;;
26686;SDS011;14298;50.900;4.648;2023-09-12T09:48:56;7.87;;;4.58;;
26686;SDS011;14298;50.900;4.648;2023-09-12T09:51:25;8.65;;;5.10;;
26686;SDS011;14298;50.900;4.648;2023-09-12T09:53:53;5.42;;;3.77;;
26686;SDS011;14298;50.900;4.648;2023-09-12T09:56:24;7.90;;;5.45;;
26686;SDS011;14298;50.900;4.648;2023-09-12T09:58:55;6.97;;;4.37;;
26686;SDS011;14298;50.900;4.648;2023-09-12T10:01:29;7.60;;;4.70;;
26686;SDS011;14298;50.900;4.648;2023-09-12T10:03:53;12.28;;;4.12;;
26686;SDS011;14298;50.900;4.648;2023-09-12T10:06:22;7.72;;;4.30;;
26686;SDS011;14298;50.900;4.648;2023-09-12T10:08:51;7.17;;;4.17;;
26686;SDS011;14298;50.900;4.648;2023-09-12T10:11:24;6.67;;;4.10;;
26686;SDS011;14298;50.900;4.648;2023-09-12T10:13:55;3.85;;;2.52;;
26686;SDS011;14298;50.900;4.648;2023-09-12T10:16:24;4.55;;;2.40;;
26686;SDS011;14298;50.900;4.648;2023-09-12T10:19:03;5.60;;;2.67;;
26686;SDS011;14298;50.900;4.648;2023-09-12T10:24:15;6.55;;;3.65;;
26686;SDS011;14298;50.900;4.648;2023-09-12T10:26:44;4.08;;;3.27;;
26686;SDS011;14298;50.900;4.648;2023-09-12T10:29:13;7.00;;;4.55;;
26686;SDS011;14298;50.900;4.648;2023-09-12T10:31:42;8.35;;;3.80;;
26686;SDS011;14298;50.900;4.648;2023-09-12T10:34:10;5.10;;;4.15;;
26686;SDS011;14298;50.900;4.648;2023-09-12T10:36:40;9.73;;;6.08;;
26686;SDS011;14298;50.900;4.648;2023-09-12T10:39:09;7.47;;;4.87;;
26686;SDS011;14298;50.900;4.648;2023-09-12T10:41:37;9.28;;;5.40;;
26686;SDS011;14298;50.900;4.648;2023-09-12T10:44:09;10.55;;;6.12;;
26686;SDS011;14298;50.900;4.648;2023-09-12T10:49:25;8.65;;;4.22;;
26686;SDS011;14298;50.900;4.648;2023-09-12T10:51:53;6.92;;;4.65;;
26686;SDS011;14298;50.900;4.648;2023-09-12T10:54:23;6.42;;;3.70;;
26686;SDS011;14298;50.900;4.648;2023-09-12T10:57:08;4.47;;;3.40;;
26686;SDS011;14298;50.900;4.648;2023-09-12T10:59:42;7.75;;;4.03;;
26686;SDS011;14298;50.900;4.648;2023-09-12T11:04:53;5.15;;;2.83;;
26686;SDS011;14298;50.900;4.648;2023-09-12T11:12:51;5.40;;;3.75;;
26686;SDS011;14298;50.900;4.648;2023-09-12T11:15:21;4.97;;;3.47;;
26686;SDS011;14298;50.900;4.648;2023-09-12T11:17:51;5.58;;;3.80;;
26686;SDS011;14298;50.900;4.648;2023-09-12T11:20:19;5.05;;;3.62;;
26686;SDS011;14298;50.900;4.648;2023-09-12T11:22:47;6.17;;;4.45;;
26686;SDS011;14298;50.900;4.648;2023-09-12T11:25:22;5.28;;;3.87;;
26686;SDS011;14298;50.900;4.648;2023-09-12T11:30:21;10.08;;;5.05;;
26686;SDS011;14298;50.900;4.648;2023-09-12T11:32:50;8.73;;;5.10;;
26686;SDS011;14298;50.900;4.648;2023-09-12T11:35:25;7.15;;;3.33;;
26686;SDS011;14298;50.900;4.648;2023-09-12T11:37:54;5.10;;;3.65;;
26686;SDS011;14298;50.900;4.648;2023-09-12T11:40:26;5.72;;;4.17;;
26686;SDS011;14298;50.900;4.648;2023-09-12T11:42:55;5.22;;;3.92;;
26686;SDS011;14298;50.900;4.648;2023-09-12T11:45:24;3.47;;;3.12;;
26686;SDS011;14298;50.900;4.648;2023-09-12T11:47:52;6.20;;;4.20;;
26686;SDS011;14298;50.900;4.648;2023-09-12T11:53:04;6.15;;;3.02;;
26686;SDS011;14298;50.900;4.648;2023-09-12T11:55:30;4.72;;;3.27;;
26686;SDS011;14298;50.900;4.648;2023-09-12T11:57:58;7.47;;;4.33;;
26686;SDS011;14298;50.900;4.648;2023-09-12T12:00:26;5.28;;;3.20;;
26686;SDS011;14298;50.900;4.648;2023-09-12T12:02:55;4.50;;;3.45;;
26686;SDS011;14298;50.900;4.648;2023-09-12T12:05:23;6.42;;;3.30;;
26686;SDS011;14298;50.900;4.648;2023-09-12T12:07:51;4.37;;;3.02;;
26686;SDS011;14298;50.900;4.648;2023-09-12T12:10:19;3.15;;;2.83;;
26686;SDS011;14298;50.900;4.648;2023-09-12T12:12:47;4.00;;;3.22;;
26686;SDS011;14298;50.900;4.648;2023-09-12T12:15:15;3.83;;;3.27;;
26686;SDS011;14298;50.900;4.648;2023-09-12T12:17:43;8.58;;;3.35;;
26686;SDS011;14298;50.900;4.648;2023-09-12T12:20:11;4.00;;;3.60;;
26686;SDS011;14298;50.900;4.648;2023-09-12T12:22:39;3.02;;;2.72;;
26686;SDS011;14298;50.900;4.648;2023-09-12T12:25:13;4.92;;;2.90;;
26686;SDS011;14298;50.900;4.648;2023-09-12T12:27:37;4.58;;;3.45;;
26686;SDS011;14298;50.900;4.648;2023-09-12T12:30:10;3.92;;;3.02;;
26686;SDS011;14298;50.900;4.648;2023-09-12T12:32:45;6.15;;;3.75;;
26686;SDS011;14298;50.900;4.648;2023-09-12T12:35:23;5.70;;;3.77;;
26686;SDS011;14298;50.900;4.648;2023-09-12T12:37:43;4.15;;;3.52;;
26686;SDS011;14298;50.900;4.648;2023-09-12T12:40:14;4.78;;;4.03;;
26686;SDS011;14298;50.900;4.648;2023-09-12T12:42:43;4.15;;;3.22;;
26686;SDS011;14298;50.900;4.648;2023-09-12T12:45:12;4.90;;;4.03;;
26686;SDS011;14298;50.900;4.648;2023-09-12T12:47:41;5.60;;;3.72;;
26686;SDS011;14298;50.900;4.648;2023-09-12T12:50:12;8.08;;;3.98;;
26686;SDS011;14298;50.900;4.648;2023-09-12T12:52:41;7.85;;;4.78;;
26686;SDS011;14298;50.900;4.648;2023-09-12T12:55:10;9.28;;;4.65;;
26686;SDS011;14298;50.900;4.648;2023-09-12T12:57:38;8.30;;;4.62;;
26686;SDS011;14298;50.900;4.648;2023-09-12T13:00:07;8.88;;;5.55;;
26686;SDS011;14298;50.900;4.648;2023-09-12T13:02:40;6.37;;;3.67;;
26686;SDS011;14298;50.900;4.648;2023-09-12T13:05:24;6.50;;;4.35;;
26686;SDS011;14298;50.900;4.648;2023-09-12T13:07:50;5.15;;;4.28;;
26686;SDS011;14298;50.900;4.648;2023-09-12T13:10:19;6.70;;;3.15;;
26686;SDS011;14298;50.900;4.648;2023-09-12T13:12:47;6.67;;;4.33;;
26686;SDS011;14298;50.900;4.648;2023-09-12T13:15:15;5.60;;;3.77;;
26686;SDS011;14298;50.900;4.648;2023-09-12T13:17:45;4.65;;;3.85;;
26686;SDS011;14298;50.900;4.648;2023-09-12T13:20:13;5.03;;;4.05;;
26686;SDS011;14298;50.900;4.648;2023-09-12T13:22:41;8.28;;;5.03;;
26686;SDS011;14298;50.900;4.648;2023-09-12T13:25:10;6.42;;;3.65;;
26686;SDS011;14298;50.900;4.648;2023-09-12T13:27:38;9.13;;;3.45;;
26686;SDS011;14298;50.900;4.648;2023-09-12T13:30:06;6.92;;;3.50;;
26686;SDS011;14298;50.900;4.648;2023-09-12T13:32:35;3.40;;;3.10;;
26686;SDS011;14298;50.900;4.648;2023-09-12T13:35:03;4.58;;;3.35;;
26686;SDS011;14298;50.900;4.648;2023-09-12T13:37:31;4.35;;;3.35;;
26686;SDS011;14298;50.900;4.648;2023-09-12T13:39:59;6.45;;;2.70;;
26686;SDS011;14298;50.900;4.648;2023-09-12T13:42:27;3.40;;;2.65;;
26686;SDS011;14298;50.900;4.648;2023-09-12T13:44:56;6.17;;;3.65;;
26686;SDS011;14298;50.900;4.648;2023-09-12T13:47:24;5.33;;;3.27;;
26686;SDS011;14298;50.900;4.648;2023-09-12T13:49:52;5.53;;;3.33;;
26686;SDS011;14298;50.900;4.648;2023-09-12T13:52:21;4.67;;;2.80;;
26686;SDS011;14298;50.900;4.648;2023-09-12T13:54:49;2.92;;;2.60;;
26686;SDS011;14298;50.900;4.648;2023-09-12T13:57:17;5.55;;;3.05;;
26686;SDS011;14298;50.900;4.648;2023-09-12T13:59:45;4.12;;;2.15;;
26686;SDS011;14298;50.900;4.648;2023-09-12T14:02:14;3.87;;;2.83;;
26686;SDS011;14298;50.900;4.648;2023-09-12T14:04:42;2.50;;;2.27;;
26686;SDS011;14298;50.900;4.648;2023-09-12T14:07:10;2.92;;;2.27;;
26686;SDS011;14298;50.900;4.648;2023-09-12T14:09:39;6.62;;;3.02;;
26686;SDS011;14298;50.900;4.648;2023-09-12T14:12:07;3.55;;;2.33;;
26686;SDS011;14298;50.900;4.648;2023-09-12T14:14:35;3.08;;;2.60;;
26686;SDS011;14298;50.900;4.648;2023-09-12T14:17:03;2.40;;;2.20;;
26686;SDS011;14298;50.900;4.648;2023-09-12T14:19:31;2.95;;;2.62;;
26686;SDS011;14298;50.900;4.648;2023-09-12T14:21:59;4.20;;;2.80;;
26686;SDS011;14298;50.900;4.648;2023-09-12T14:24:26;5.25;;;3.02;;
26686;SDS011;14298;50.900;4.648;2023-09-12T14:26:54;3.22;;;2.22;;
26686;SDS011;14298;50.900;4.648;2023-09-12T14:29:22;4.47;;;2.70;;
26686;SDS011;14298;50.900;4.648;2023-09-12T14:31:52;3.15;;;2.35;;
26686;SDS011;14298;50.900;4.648;2023-09-12T14:34:22;4.97;;;2.58;;
26686;SDS011;14298;50.900;4.648;2023-09-12T14:36:50;4.87;;;3.08;;
26686;SDS011;14298;50.900;4.648;2023-09-12T14:39:18;2.52;;;2.33;;
26686;SDS011;14298;50.900;4.648;2023-09-12T14:41:46;3.40;;;2.72;;
26686;SDS011;14298;50.900;4.648;2023-09-12T14:44:15;3.37;;;2.10;;
26686;SDS011;14298;50.900;4.648;2023-09-12T14:46:43;8.05;;;2.58;;
26686;SDS011;14298;50.900;4.648;2023-09-12T14:49:11;3.85;;;2.50;;
26686;SDS011;14298;50.900;4.648;2023-09-12T14:51:39;2.52;;;2.33;;
26686;SDS011;14298;50.900;4.648;2023-09-12T14:54:08;5.55;;;2.35;;
26686;SDS011;14298;50.900;4.648;2023-09-12T14:56:36;3.27;;;2.40;;
26686;SDS011;14298;50.900;4.648;2023-09-12T14:59:04;6.25;;;2.65;;
26686;SDS011;14298;50.900;4.648;2023-09-12T15:01:33;3.33;;;2.37;;
26686;SDS011;14298;50.900;4.648;2023-09-12T15:04:02;2.55;;;2.27;;
26686;SDS011;14298;50.900;4.648;2023-09-12T15:06:30;4.60;;;2.42;;
26686;SDS011;14298;50.900;4.648;2023-09-12T15:08:59;6.83;;;2.75;;
26686;SDS011;14298;50.900;4.648;2023-09-12T15:11:27;5.60;;;2.60;;
26686;SDS011;14298;50.900;4.648;2023-09-12T15:13:55;4.12;;;3.22;;
26686;SDS011;14298;50.900;4.648;2023-09-12T15:16:24;3.37;;;2.50;;